Time;durP1;ratioP1;P1;durP2;ratioP2;P2;SDS_P1;SDS_P2;PMS_P1;PMS_P2;Temp;Humidity;BMP_temperature;BMP_pressure;BME280_temperature;BME280_humidity;BME280_pressure;Samples;Min_cycle;Max_cycle;Signal;HPM_P1;HPM_P2
2022/03/03 00:00:06;;;;;;;11.85;8.58;;;;;;;4.21;78.02;100607.35;1723715;81;20881;-72
2022/03/03 00:02:34;;;;;;;8.70;7.28;;;;;;;4.21;77.93;100609.95;1767196;80;21359;-75
2022/03/03 00:05:02;;;;;;;11.50;8.13;;;;;;;4.19;77.79;100602.20;1768171;81;20908;-71
2022/03/03 00:07:29;;;;;;;10.20;7.55;;;;;;;4.15;77.66;100615.72;1768049;81;20921;-73
2022/03/03 00:09:55;;;;;;;10.40;7.65;;;;;;;4.10;77.59;100607.25;1768158;81;20924;-73
2022/03/03 00:12:22;;;;;;;10.78;8.38;;;;;;;4.05;77.67;100608.32;1768285;81;22131;-72
2022/03/03 00:14:49;;;;;;;8.28;6.72;;;;;;;4.02;77.86;100608.40;1767990;81;21501;-72
2022/03/03 00:17:15;;;;;;;17.55;13.35;;;;;;;4.00;78.00;100600.66;1768141;81;20917;-74
2022/03/03 00:19:42;;;;;;;12.15;8.85;;;;;;;4.01;78.14;100601.53;1768260;81;21346;-73
2022/03/03 00:22:09;;;;;;;11.00;9.33;;;;;;;4.01;78.33;100600.23;1768043;81;21061;-72
2022/03/03 00:24:36;;;;;;;13.65;9.58;;;;;;;4.03;78.45;100599.28;1768425;81;21106;-72
2022/03/03 00:27:05;;;;;;;10.68;8.50;;;;;;;4.07;78.34;100598.70;1768062;80;20900;-73
2022/03/03 00:29:32;;;;;;;10.48;8.50;;;;;;;4.08;78.42;100592.17;1768370;81;20968;-72
2022/03/03 00:31:58;;;;;;;8.65;7.70;;;;;;;4.11;78.21;100583.44;1767986;81;20928;-74
2022/03/03 00:34:25;;;;;;;9.90;8.20;;;;;;;4.10;78.11;100572.22;1768455;81;20932;-73
2022/03/03 00:36:51;;;;;;;9.20;8.25;;;;;;;4.10;78.18;100567.48;1768002;81;21932;-73
2022/03/03 00:39:18;;;;;;;10.72;8.75;;;;;;;4.06;78.15;100563.29;1768244;80;21590;-73
2022/03/03 00:41:44;;;;;;;8.70;7.67;;;;;;;4.05;78.36;100559.02;1775066;80;20893;-74
2022/03/03 00:44:11;;;;;;;8.95;7.47;;;;;;;4.06;78.27;100556.80;1775104;80;20917;-73
2022/03/03 00:46:38;;;;;;;9.95;7.70;;;;;;;4.05;78.16;100555.13;1775272;80;21608;-72
2022/03/03 00:49:04;;;;;;;11.20;7.97;;;;;;;4.01;78.44;100551.77;1775172;80;21140;-73
2022/03/03 00:54:23;;;;;;;13.05;8.83;;;;;;;4.02;78.40;100542.23;1816486;79;22754;-73
2022/03/03 00:56:50;;;;;;;7.97;7.17;;;;;;;3.93;78.59;100538.20;1789578;80;21003;-73
2022/03/03 00:59:16;;;;;;;6.95;6.25;;;;;;;3.94;78.68;100530.84;1789633;80;21342;-73
2022/03/03 01:01:43;;;;;;;8.45;7.33;;;;;;;3.98;78.78;100530.27;1789496;80;20955;-73
2022/03/03 01:04:10;;;;;;;7.67;6.78;;;;;;;3.93;78.77;100529.13;1789412;80;20994;-74
2022/03/03 01:06:37;;;;;;;7.17;6.37;;;;;;;3.89;78.86;100527.53;1789475;80;20892;-72
2022/03/03 01:09:04;;;;;;;8.15;6.70;;;;;;;3.88;78.94;100528.44;1789676;80;20923;-73
2022/03/03 01:11:31;;;;;;;8.00;6.30;;;;;;;3.82;78.87;100531.23;1789520;80;21539;-72
2022/03/03 01:13:58;;;;;;;9.28;6.22;;;;;;;3.77;79.13;100530.55;1789308;80;20935;-74
2022/03/03 01:16:24;;;;;;;8.15;6.70;;;;;;;3.73;79.30;100528.50;1789812;80;20927;-71
2022/03/03 01:18:50;;;;;;;9.65;6.50;;;;;;;3.69;79.29;100519.98;1789358;80;21436;-71
2022/03/03 01:21:17;;;;;;;7.28;6.58;;;;;;;3.66;79.44;100511.45;1789729;80;21040;-74
2022/03/03 01:23:43;;;;;;;7.55;6.58;;;;;;;3.68;79.59;100510.95;1789541;80;21527;-71
2022/03/03 01:26:10;;;;;;;8.50;7.08;;;;;;;3.68;79.66;100512.25;1789622;80;20948;-72
2022/03/03 01:28:37;;;;;;;8.65;7.58;;;;;;;3.65;79.79;100510.61;1789421;80;21354;-71
2022/03/03 01:31:04;;;;;;;8.80;7.00;;;;;;;3.65;79.86;100506.72;1789762;80;21468;-72
2022/03/03 01:33:30;;;;;;;8.18;6.70;;;;;;;3.67;80.01;100505.39;1789463;80;20964;-72
2022/03/03 01:35:56;;;;;;;8.50;7.12;;;;;;;3.68;79.97;100505.31;1789776;80;21509;-71
2022/03/03 01:38:23;;;;;;;8.03;7.22;;;;;;;3.70;80.00;100497.49;1789371;80;20982;-72
2022/03/03 01:40:50;;;;;;;8.75;6.53;;;;;;;3.70;79.96;100498.33;1789358;80;21014;-71
2022/03/03 01:43:16;;;;;;;11.73;7.55;;;;;;;3.69;79.89;100500.54;1789358;80;20880;-72
2022/03/03 01:45:43;;;;;;;7.70;6.30;;;;;;;3.69;79.90;100500.97;1789512;80;20892;-73
2022/03/03 01:48:10;;;;;;;8.48;6.60;;;;;;;3.64;79.79;100499.83;1789525;79;21334;-73
2022/03/03 01:50:37;;;;;;;7.40;6.33;;;;;;;3.58;79.89;100488.38;1789434;80;20860;-72
2022/03/03 01:53:04;;;;;;;10.20;6.78;;;;;;;3.56;80.01;100491.48;1787529;80;20978;-72
2022/03/03 01:55:32;;;;;;;11.97;7.90;;;;;;;3.54;80.01;100495.86;1784077;80;20936;-72
2022/03/03 01:58:00;;;;;;;9.28;8.03;;;;;;;3.48;80.09;100491.71;1784135;80;20860;-72
2022/03/03 02:00:27;;;;;;;12.40;8.63;;;;;;;3.43;80.19;100489.73;1784450;80;21422;-72
2022/03/03 02:02:54;;;;;;;11.33;8.75;;;;;;;3.38;80.36;100486.45;1784035;80;21450;-72
2022/03/03 02:05:21;;;;;;;12.25;9.35;;;;;;;3.36;80.54;100486.94;1783587;80;20881;-72
2022/03/03 02:07:49;;;;;;;12.75;9.13;;;;;;;3.35;80.68;100486.98;1783500;80;21401;-73
2022/03/03 02:10:16;;;;;;;12.73;9.50;;;;;;;3.32;80.83;100488.77;1783663;80;20912;-71
2022/03/03 02:12:42;;;;;;;12.13;8.93;;;;;;;3.33;80.98;100480.55;1783552;80;22156;-72
2022/03/03 02:15:18;;;;;;;10.23;8.58;;;;;;;3.29;81.00;100477.22;1783475;80;20881;-71
2022/03/03 02:17:45;;;;;;;11.18;8.43;;;;;;;3.28;81.14;100476.80;1783542;80;20940;-72
2022/03/03 02:20:19;;;;;;;9.28;7.78;;;;;;;3.24;81.25;100473.91;1783854;80;20939;-72
2022/03/03 02:22:46;;;;;;;13.23;8.83;;;;;;;3.22;81.40;100467.92;1783838;80;21492;-73
2022/03/03 02:25:12;;;;;;;12.15;9.18;;;;;;;3.21;81.54;100467.55;1783910;80;21465;-72
2022/03/03 02:27:41;;;;;;;9.70;7.80;;;;;;;3.21;81.76;100461.06;1783508;80;21021;-72
2022/03/03 02:30:09;;;;;;;8.90;7.95;;;;;;;3.25;81.85;100461.37;1752907;80;20908;-73
2022/03/03 02:32:38;;;;;;;9.40;8.08;;;;;;;3.27;81.74;100460.87;1783508;80;20903;-72
2022/03/03 02:35:05;;;;;;;13.43;9.30;;;;;;;3.26;81.71;100463.50;1784002;80;20971;-72
2022/03/03 02:37:38;;;;;;;11.83;9.08;;;;;;;3.25;81.89;100467.84;1783536;80;21467;-72
2022/03/03 02:40:08;;;;;;;10.38;8.43;;;;;;;3.28;81.95;100464.30;1783836;80;20979;-72
2022/03/03 02:42:35;;;;;;;14.50;10.68;;;;;;;3.29;81.85;100463.39;1784172;80;20936;-73
2022/03/03 02:45:02;;;;;;;11.60;9.45;;;;;;;3.30;81.96;100468.98;1783612;80;20971;-73
2022/03/03 02:47:29;;;;;;;11.08;8.75;;;;;;;3.35;81.93;100458.47;1783646;80;20912;-72
2022/03/03 02:49:56;;;;;;;11.60;8.60;;;;;;;3.37;81.77;100457.98;1783791;80;21810;-72
2022/03/03 02:52:22;;;;;;;11.12;8.33;;;;;;;3.37;81.81;100449.74;1783439;80;20872;-73
2022/03/03 02:54:49;;;;;;;10.63;8.20;;;;;;;3.40;81.83;100452.25;1784467;80;20983;-72
2022/03/03 03:00:01;;;;;;;8.40;7.00;;;;;;;3.43;81.64;100450.00;1783688;80;21420;-74
2022/03/03 03:02:28;;;;;;;10.00;7.30;;;;;;;3.45;81.63;100446.45;1783743;80;21642;-73
2022/03/03 03:04:55;;;;;;;10.75;8.55;;;;;;;3.46;81.59;100441.66;1783582;80;20857;-72
2022/03/03 03:07:22;;;;;;;8.98;7.45;;;;;;;3.50;81.52;100443.71;1783904;80;20928;-73
2022/03/03 03:09:49;;;;;;;8.00;7.08;;;;;;;3.50;81.48;100435.48;1783570;80;20924;-73
2022/03/03 03:12:16;;;;;;;8.78;7.28;;;;;;;3.52;81.40;100430.25;1784308;80;20927;-72
2022/03/03 03:14:43;;;;;;;9.55;6.50;;;;;;;3.55;81.52;100429.30;1783800;80;21135;-73
2022/03/03 03:17:10;;;;;;;8.20;7.40;;;;;;;3.59;81.67;100423.95;1783616;80;21492;-74
2022/03/03 03:19:37;;;;;;;11.53;7.30;;;;;;;3.66;81.56;100425.88;1784012;80;20919;-72
2022/03/03 03:22:05;;;;;;;8.55;6.78;;;;;;;3.70;81.25;100427.02;1783806;80;20900;-72
2022/03/03 03:24:32;;;;;;;9.10;6.97;;;;;;;3.72;81.22;100423.92;1783510;80;20932;-72
2022/03/03 03:26:58;;;;;;;8.40;6.95;;;;;;;3.70;80.91;100411.91;1783574;80;21150;-73
2022/03/03 03:29:25;;;;;;;8.15;6.85;;;;;;;3.69;80.72;100418.85;1783795;80;21015;-73
2022/03/03 03:31:52;;;;;;;10.93;8.10;;;;;;;3.65;80.65;100415.97;1783589;80;20932;-73
2022/03/03 03:34:18;;;;;;;9.90;7.10;;;;;;;3.59;80.65;100416.17;1783763;80;20864;-73
2022/03/03 03:36:45;;;;;;;9.68;7.92;;;;;;;3.55;80.67;100412.44;1783863;80;21002;-73
2022/03/03 03:39:11;;;;;;;14.60;10.10;;;;;;;3.49;80.87;100401.81;1783600;80;21140;-73
2022/03/03 03:41:38;;;;;;;16.15;9.83;;;;;;;3.45;81.01;100399.80;1783486;80;21319;-72
2022/03/03 03:44:05;;;;;;;15.00;10.00;;;;;;;3.47;81.39;100403.19;1783570;80;20955;-71
2022/03/03 03:46:32;;;;;;;15.55;9.58;;;;;;;3.50;81.31;100402.23;1783700;80;20979;-72
2022/03/03 03:48:58;;;;;;;20.97;11.97;;;;;;;3.47;81.32;100400.59;1783507;80;20934;-73
2022/03/03 03:51:25;;;;;;;19.82;12.68;;;;;;;3.44;81.38;100395.95;1783499;80;21477;-72
2022/03/03 03:53:51;;;;;;;19.52;11.95;;;;;;;3.42;81.57;100388.67;1780148;80;21050;-72
2022/03/03 03:56:18;;;;;;;22.48;12.60;;;;;;;3.40;81.75;100386.16;1775545;80;20857;-72
2022/03/03 03:58:46;;;;;;;20.23;12.68;;;;;;;3.40;81.82;100382.70;1775123;80;21402;-73
2022/03/03 04:01:13;;;;;;;31.27;14.95;;;;;;;3.39;82.00;100380.56;1775307;80;20935;-73
2022/03/03 04:03:40;;;;;;;26.00;14.07;;;;;;;3.38;82.09;100379.31;1775196;80;21888;-72
2022/03/03 04:06:07;;;;;;;29.98;15.40;;;;;;;3.35;82.20;100375.54;1775274;80;21382;-72
2022/03/03 04:08:34;;;;;;;29.65;15.85;;;;;;;3.30;82.38;100371.81;1775459;80;20976;-72
2022/03/03 04:11:02;;;;;;;25.72;15.35;;;;;;;3.26;82.58;100372.34;1775355;80;21394;-72
2022/03/03 04:13:28;;;;;;;34.40;17.30;;;;;;;3.25;82.85;100366.78;1775593;80;20884;-72
2022/03/03 04:15:55;;;;;;;38.80;18.92;;;;;;;3.27;83.03;100362.86;1775183;80;21126;-72
2022/03/03 04:18:22;;;;;;;35.58;19.02;;;;;;;3.29;83.15;100364.91;1775265;80;21493;-73
2022/03/03 04:20:48;;;;;;;39.98;18.15;;;;;;;3.34;83.45;100359.61;1775584;80;20873;-72
2022/03/03 04:23:19;;;;;;;41.98;20.92;;;;;;;3.41;83.55;100355.89;1775637;80;20916;-72
2022/03/03 04:25:45;;;;;;;44.80;19.10;;;;;;;3.46;83.51;100355.27;1775301;80;21054;-72
2022/03/03 04:28:12;;;;;;;43.95;19.27;;;;;;;3.48;83.24;100354.77;1775485;80;21786;-73
2022/03/03 04:30:38;;;;;;;47.27;19.02;;;;;;;3.42;83.07;100349.80;1775401;80;20865;-73
2022/03/03 04:33:05;;;;;;;42.53;20.70;;;;;;;3.38;83.30;100349.08;1775235;80;21011;-73
2022/03/03 04:35:32;;;;;;;48.05;20.82;;;;;;;3.37;83.43;100345.23;1775419;80;20951;-74
2022/03/03 04:38:00;;;;;;;45.50;21.95;;;;;;;3.36;83.55;100342.23;1775206;80;21013;-73
2022/03/03 04:40:26;;;;;;;55.08;23.30;;;;;;;3.35;83.60;100348.33;1775569;80;21520;-73
2022/03/03 04:42:53;;;;;;;48.80;20.57;;;;;;;3.34;83.73;100343.59;1775467;80;20936;-74
2022/03/03 04:45:20;;;;;;;52.27;21.20;;;;;;;3.31;83.74;100344.55;1775135;80;21390;-73
2022/03/03 04:47:46;;;;;;;55.67;23.70;;;;;;;3.30;83.79;100347.19;1775233;80;20933;-73
2022/03/03 04:50:13;;;;;;;43.15;21.45;;;;;;;3.29;83.91;100335.98;1775581;80;20943;-74
2022/03/03 04:52:39;;;;;;;50.12;20.43;;;;;;;3.29;83.92;100339.00;1775114;80;21991;-73
2022/03/03 04:55:06;;;;;;;42.20;21.52;;;;;;;3.29;84.09;100338.58;1775043;80;20908;-73
2022/03/03 04:57:33;;;;;;;41.65;21.73;;;;;;;3.30;84.08;100344.59;1775276;80;21477;-73
2022/03/03 05:00:00;;;;;;;41.35;20.23;;;;;;;3.29;84.18;100342.47;1775110;80;21269;-73
2022/03/03 05:02:26;;;;;;;42.08;21.25;;;;;;;3.30;84.26;100338.95;1775299;80;20841;-73
2022/03/03 05:04:53;;;;;;;34.40;19.35;;;;;;;3.29;84.30;100337.70;1775269;80;21137;-73
2022/03/03 05:07:19;;;;;;;40.50;23.30;;;;;;;3.29;84.25;100339.88;1775052;80;20912;-74
2022/03/03 05:09:46;;;;;;;43.08;22.80;;;;;;;3.28;84.12;100337.33;1775265;80;20896;-74
2022/03/03 05:12:12;;;;;;;42.10;23.60;;;;;;;3.28;84.33;100340.75;1775246;80;20901;-74
2022/03/03 05:14:39;;;;;;;39.15;23.52;;;;;;;3.29;84.24;100341.17;1775131;80;20908;-73
2022/03/03 05:17:06;;;;;;;41.05;22.87;;;;;;;3.27;84.14;100330.46;1775248;80;21044;-74
2022/03/03 05:19:33;;;;;;;44.73;25.00;;;;;;;3.25;84.17;100336.14;1775066;80;20991;-74
2022/03/03 05:22:00;;;;;;;43.28;24.45;;;;;;;3.23;84.19;100335.34;1775113;80;20912;-74
2022/03/03 05:24:26;;;;;;;42.93;24.82;;;;;;;3.24;84.32;100332.69;1775462;80;20889;-74
2022/03/03 05:26:53;;;;;;;42.00;24.05;;;;;;;3.26;84.41;100334.77;1775356;80;20967;-74
2022/03/03 05:29:19;;;;;;;40.23;23.60;;;;;;;3.27;84.34;100331.76;1775248;80;21137;-73
2022/03/03 05:31:46;;;;;;;37.38;23.62;;;;;;;3.30;84.32;100338.12;1775539;80;21394;-72
2022/03/03 05:34:14;;;;;;;34.00;21.27;;;;;;;3.32;84.25;100333.73;1775365;80;20920;-74
2022/03/03 05:36:41;;;;;;;36.33;22.48;;;;;;;3.35;84.16;100332.31;1775165;80;20979;-73
2022/03/03 05:39:08;;;;;;;30.95;21.23;;;;;;;3.35;83.92;100336.66;1775644;80;20885;-74
2022/03/03 05:41:34;;;;;;;34.70;23.07;;;;;;;3.37;83.88;100327.09;1775685;80;21474;-73
2022/03/03 05:44:01;;;;;;;34.08;23.52;;;;;;;3.40;83.80;100328.27;1775292;80;20936;-74
2022/03/03 05:46:28;;;;;;;29.50;19.37;;;;;;;3.40;83.67;100333.02;1775269;80;20869;-72
2022/03/03 05:48:55;;;;;;;34.30;21.57;;;;;;;3.41;83.49;100329.52;1775638;80;20932;-74
2022/03/03 05:51:21;;;;;;;33.92;21.05;;;;;;;3.43;83.51;100330.31;1775392;80;21105;-74
2022/03/03 05:53:48;;;;;;;30.35;19.87;;;;;;;3.47;83.47;100318.94;1775478;80;21515;-73
2022/03/03 05:56:17;;;;;;;31.75;21.85;;;;;;;3.48;83.17;100318.48;1775446;80;21449;-72
2022/03/03 05:58:47;;;;;;;29.50;21.20;;;;;;;3.49;83.05;100317.14;1775506;80;20939;-73
2022/03/03 06:01:16;;;;;;;30.35;20.60;;;;;;;3.55;83.08;100316.52;1775457;80;20984;-73
2022/03/03 06:03:46;;;;;;;25.82;19.55;;;;;;;3.56;82.68;100310.42;1754437;80;20960;-73
2022/03/03 06:06:26;;;;;;;28.60;18.65;;;;;;;3.57;82.59;100316.02;1775239;80;21160;-74
2022/03/03 06:09:02;;;;;;;28.67;18.82;;;;;;;3.55;82.41;100316.52;1755211;80;20936;-73
2022/03/03 06:11:29;;;;;;;31.73;20.37;;;;;;;3.53;82.28;100312.67;1775217;80;20940;-74
2022/03/03 06:14:07;;;;;;;32.00;21.10;;;;;;;3.51;82.06;100318.36;1775229;80;20900;-74
2022/03/03 06:16:35;;;;;;;31.82;20.12;;;;;;;3.46;82.07;100318.98;1775304;80;20857;-74
2022/03/03 06:19:02;;;;;;;30.55;21.57;;;;;;;3.45;82.17;100318.14;1775550;80;21127;-74
2022/03/03 06:21:29;;;;;;;31.23;22.87;;;;;;;3.46;82.16;100308.62;1775234;80;20940;-73
2022/03/03 06:23:56;;;;;;;32.42;22.65;;;;;;;3.48;82.21;100309.41;1775356;80;21331;-74
2022/03/03 06:26:23;;;;;;;34.90;22.42;;;;;;;3.50;82.28;100298.08;1775287;80;21413;-73
2022/03/03 06:28:50;;;;;;;28.90;21.48;;;;;;;3.57;82.27;100297.41;1775323;80;20881;-72
2022/03/03 06:31:16;;;;;;;33.88;21.62;;;;;;;3.63;82.15;100297.66;1775455;80;21579;-73
2022/03/03 06:33:46;;;;;;;32.25;21.70;;;;;;;3.65;81.85;100295.85;1775595;80;20940;-74
2022/03/03 06:36:14;;;;;;;30.95;21.55;;;;;;;3.66;81.88;100302.71;1775637;80;21320;-74
2022/03/03 06:38:41;;;;;;;27.75;19.45;;;;;;;3.69;81.72;100298.27;1775639;80;21018;-73
2022/03/03 06:41:08;;;;;;;26.07;17.92;;;;;;;3.72;81.72;100289.53;1775620;80;20881;-73
2022/03/03 06:43:35;;;;;;;27.87;18.82;;;;;;;3.74;81.33;100283.84;1775433;80;21058;-72
2022/03/03 06:46:04;;;;;;;31.85;22.60;;;;;;;3.69;80.97;100282.72;1775519;80;20963;-72
2022/03/03 06:48:31;;;;;;;31.12;22.52;;;;;;;3.65;81.07;100277.70;1775655;80;20947;-74
2022/03/03 06:50:58;;;;;;;28.67;19.17;;;;;;;3.60;81.15;100273.11;1775299;80;21375;-74
2022/03/03 06:53:30;;;;;;;30.48;21.80;;;;;;;3.62;81.27;100276.50;1775294;80;20861;-74
2022/03/03 06:56:07;;;;;;;27.95;20.25;;;;;;;3.64;81.34;100278.58;1775301;80;20924;-72
2022/03/03 06:58:38;;;;;;;30.85;20.05;;;;;;;3.66;81.20;100276.33;1731061;80;20873;-73
2022/03/03 07:01:11;;;;;;;31.10;20.70;;;;;;;3.68;81.12;100270.63;1754274;80;20881;-72
2022/03/03 07:03:42;;;;;;;29.07;20.80;;;;;;;3.73;81.21;100266.57;1775322;80;21025;-74
2022/03/03 07:06:11;;;;;;;26.95;19.07;;;;;;;3.76;81.07;100257.83;1775207;80;20971;-73
2022/03/03 07:08:44;;;;;;;30.88;19.90;;;;;;;3.77;81.05;100260.37;1753008;80;21154;-74
2022/03/03 07:11:11;;;;;;;30.37;19.02;;;;;;;3.79;80.99;100257.27;1775282;80;21516;-73
2022/03/03 07:13:40;;;;;;;27.40;19.60;;;;;;;3.84;80.97;100264.42;1775249;80;20870;-74
2022/03/03 07:16:59;;;;;;;28.10;19.37;;;;;;;3.89;80.89;100257.33;1753584;80;21009;-74
2022/03/03 07:19:41;;;;;;;26.80;18.98;;;;;;;3.91;80.79;100259.41;1775326;80;20858;-74
2022/03/03 07:22:26;;;;;;;26.30;19.30;;;;;;;3.99;80.81;100254.37;1775190;80;21195;-75
2022/03/03 07:25:02;;;;;;;28.00;19.00;;;;;;;4.02;80.53;100259.44;1775240;80;21076;-74
2022/03/03 07:27:31;;;;;;;27.32;19.25;;;;;;;4.04;80.38;100253.73;1775576;80;20940;-74
2022/03/03 07:30:05;;;;;;;26.60;19.60;;;;;;;4.05;80.32;100248.95;1754107;80;20994;-72
2022/03/03 07:32:55;;;;;;;26.07;18.12;;;;;;;4.07;80.19;100250.58;1753902;80;20995;-72
2022/03/03 07:35:30;;;;;;;27.15;18.87;;;;;;;4.13;80.25;100247.72;1774124;80;21493;-73
2022/03/03 07:38:18;;;;;;;25.60;18.50;;;;;;;4.18;80.06;100238.48;1775274;80;21663;-74
2022/03/03 07:40:46;;;;;;;23.05;17.00;;;;;;;4.23;79.88;100229.22;1752866;80;21467;-74
2022/03/03 07:43:14;;;;;;;26.17;17.67;;;;;;;4.28;79.50;100228.56;1753875;80;20889;-73
2022/03/03 07:45:41;;;;;;;23.98;17.67;;;;;;;4.30;79.36;100230.66;1753667;80;20904;-73
2022/03/03 07:48:12;;;;;;;26.02;17.82;;;;;;;4.30;79.16;100226.76;1775154;80;21963;-74
2022/03/03 07:50:42;;;;;;;23.73;17.27;;;;;;;4.29;79.18;100231.54;1775293;80;20864;-73
2022/03/03 07:53:15;;;;;;;24.37;16.60;;;;;;;4.34;79.21;100233.52;1753157;80;20940;-74
2022/03/03 07:55:51;;;;;;;21.35;15.48;;;;;;;4.40;78.94;100231.11;1780332;80;21421;-74
2022/03/03 07:58:22;;;;;;;25.05;18.27;;;;;;;4.44;78.61;100225.73;1752987;80;20919;-75
2022/03/03 08:00:58;;;;;;;26.45;16.60;;;;;;;4.48;78.47;100221.27;1754207;80;21366;-74
2022/03/03 08:03:30;;;;;;;19.67;15.72;;;;;;;4.51;77.87;100217.23;1783365;80;20923;-75
2022/03/03 08:05:57;;;;;;;24.75;17.10;;;;;;;4.46;77.49;100220.02;1783684;80;20923;-74
2022/03/03 08:08:33;;;;;;;23.85;17.65;;;;;;;4.42;77.82;100209.83;1783428;80;21440;-75
2022/03/03 08:11:06;;;;;;;21.17;15.58;;;;;;;4.44;77.69;100203.66;1783769;80;21341;-74
2022/03/03 08:13:38;;;;;;;18.37;14.30;;;;;;;4.49;77.48;100199.58;1727881;80;21043;-74
2022/03/03 08:16:09;;;;;;;19.90;15.18;;;;;;;4.52;77.20;100192.52;1783425;80;20888;-74
2022/03/03 08:18:40;;;;;;;19.62;15.78;;;;;;;4.57;76.97;100182.77;1753492;80;21461;-74
2022/03/03 08:21:09;;;;;;;18.73;14.05;;;;;;;4.63;76.55;100179.55;1753176;80;21354;-72
2022/03/03 08:23:44;;;;;;;18.95;13.60;;;;;;;4.69;76.42;100179.26;1783452;80;20927;-74
2022/03/03 08:26:15;;;;;;;17.77;13.00;;;;;;;4.73;76.17;100179.52;1783130;80;20975;-74
2022/03/03 08:28:46;;;;;;;17.57;13.85;;;;;;;4.74;75.66;100177.33;1783353;80;20979;-74
2022/03/03 08:31:21;;;;;;;14.73;11.73;;;;;;;4.70;75.42;100173.17;1782379;80;20895;-74
2022/03/03 08:34:12;;;;;;;14.78;11.05;;;;;;;4.60;74.93;100167.51;1744678;80;21411;-75
2022/03/03 08:37:00;;;;;;;15.68;11.60;;;;;;;4.51;74.61;100158.38;1756509;80;20833;-74
2022/03/03 08:39:32;;;;;;;14.60;10.58;;;;;;;4.48;74.46;100152.47;1775802;80;21856;-73
2022/03/03 08:42:03;;;;;;;13.93;10.60;;;;;;;4.41;74.49;100150.58;1749177;80;20880;-72
2022/03/03 08:44:35;;;;;;;12.35;10.05;;;;;;;4.39;74.13;100139.88;1776080;80;20951;-74
2022/03/03 08:47:06;;;;;;;15.72;10.50;;;;;;;4.39;73.89;100119.95;1775713;80;20928;-73
2022/03/03 08:49:40;;;;;;;14.33;11.05;;;;;;;4.39;73.81;100118.65;1775712;80;20876;-74
2022/03/03 08:52:11;;;;;;;14.30;11.20;;;;;;;4.39;73.57;100125.59;1747697;80;21375;-72
2022/03/03 08:54:40;;;;;;;13.53;10.35;;;;;;;4.38;73.67;100121.30;1725624;80;20918;-74
2022/03/03 08:57:09;;;;;;;10.58;9.00;;;;;;;4.40;73.67;100125.52;1778435;79;20883;-73
2022/03/03 08:59:38;;;;;;;13.32;10.50;;;;;;;4.40;73.52;100128.11;1778548;79;20919;-75
2022/03/03 09:02:13;;;;;;;11.48;10.13;;;;;;;4.35;73.48;100123.58;1778663;80;21450;-74
2022/03/03 09:04:47;;;;;;;13.08;9.78;;;;;;;4.30;73.48;100115.15;1751151;80;20888;-74
2022/03/03 09:07:19;;;;;;;10.90;9.55;;;;;;;4.30;73.39;100117.28;1778245;80;20888;-74
2022/03/03 09:09:53;;;;;;;10.15;9.15;;;;;;;4.31;73.39;100106.44;1778873;80;20923;-74
2022/03/03 09:12:37;;;;;;;10.45;7.87;;;;;;;4.31;73.33;100118.13;1778475;80;21468;-74
2022/03/03 09:15:09;;;;;;;11.48;9.68;;;;;;;4.27;73.53;100113.96;1776311;80;20903;-74
2022/03/03 09:17:43;;;;;;;12.30;9.98;;;;;;;4.24;73.61;100112.34;1778647;80;20841;-74
2022/03/03 09:20:17;;;;;;;15.45;11.65;;;;;;;4.21;73.81;100112.48;1726962;80;21431;-74
2022/03/03 09:22:44;;;;;;;12.45;10.53;;;;;;;4.21;74.08;100109.89;1778498;80;20919;-73
2022/03/03 09:25:13;;;;;;;9.70;8.65;;;;;;;4.25;74.14;100108.02;1778815;80;20931;-74
2022/03/03 09:27:51;;;;;;;10.53;8.83;;;;;;;4.30;73.95;100116.45;1751358;80;20876;-73
2022/03/03 09:30:28;;;;;;;10.50;9.20;;;;;;;4.30;73.99;100114.69;1751032;80;21313;-75
2022/03/03 09:33:06;;;;;;;9.43;8.48;;;;;;;4.33;74.09;100113.71;1750001;80;20884;-73
2022/03/03 09:35:40;;;;;;;8.65;7.75;;;;;;;4.40;74.00;100113.00;1778502;80;20967;-73
2022/03/03 09:38:15;;;;;;;9.43;8.38;;;;;;;4.40;73.69;100109.10;1778821;80;20923;-73
2022/03/03 09:40:48;;;;;;;9.40;8.25;;;;;;;4.41;73.74;100112.10;1778612;80;20955;-73
2022/03/03 09:43:20;;;;;;;9.28;8.38;;;;;;;4.44;73.39;100108.90;1778983;79;21304;-73
2022/03/03 09:45:49;;;;;;;9.40;8.50;;;;;;;4.49;73.49;100114.77;1778492;80;21449;-74
2022/03/03 09:48:21;;;;;;;9.45;8.43;;;;;;;4.54;73.24;100098.98;1778681;80;20907;-74
2022/03/03 09:50:56;;;;;;;9.23;8.28;;;;;;;4.56;73.25;100098.00;1752235;80;21091;-74
2022/03/03 09:53:25;;;;;;;10.28;9.10;;;;;;;4.51;73.25;100089.58;1778861;80;20928;-74
2022/03/03 09:56:02;;;;;;;10.03;9.03;;;;;;;4.44;73.25;100091.19;1753815;80;20911;-73
2022/03/03 09:58:37;;;;;;;9.75;8.75;;;;;;;4.37;73.49;100086.72;1778586;80;21337;-75
2022/03/03 10:01:09;;;;;;;9.25;8.08;;;;;;;4.35;73.61;100080.28;1778935;80;20860;-75
2022/03/03 10:03:44;;;;;;;9.23;8.33;;;;;;;4.36;73.62;100077.26;1753322;80;21389;-74
2022/03/03 10:06:18;;;;;;;8.83;7.33;;;;;;;4.35;73.34;100069.90;1778747;80;21373;-74
2022/03/03 10:08:50;;;;;;;9.38;8.45;;;;;;;4.32;73.25;100071.34;1778764;80;21147;-74
2022/03/03 10:11:22;;;;;;;8.53;7.72;;;;;;;4.31;73.35;100064.91;1778777;80;20948;-73
2022/03/03 10:13:52;;;;;;;13.65;10.53;;;;;;;4.32;73.36;100066.16;1778810;80;21437;-73
2022/03/03 10:16:29;;;;;;;9.05;8.15;;;;;;;4.34;73.44;100064.80;1779220;80;20880;-75
2022/03/03 10:19:05;;;;;;;10.70;8.88;;;;;;;4.35;73.32;100071.20;1753941;80;20833;-73
2022/03/03 10:21:41;;;;;;;9.05;8.15;;;;;;;4.31;73.28;100066.20;1728577;80;21064;-74
2022/03/03 10:24:24;;;;;;;8.88;7.80;;;;;;;4.29;73.36;100069.32;1778325;80;20971;-76
2022/03/03 10:27:02;;;;;;;9.05;6.78;;;;;;;4.30;73.15;100072.32;1779073;80;21536;-74
2022/03/03 10:29:35;;;;;;;7.03;6.42;;;;;;;4.30;72.88;100068.43;1778866;80;21452;-76
2022/03/03 10:32:09;;;;;;;6.20;5.60;;;;;;;4.34;72.78;100063.50;1753799;80;20880;-74
2022/03/03 10:34:43;;;;;;;5.50;5.00;;;;;;;4.43;72.60;100061.80;1778874;80;21535;-74
2022/03/03 10:37:23;;;;;;;5.85;5.35;;;;;;;4.50;72.18;100061.91;1732355;80;21365;-75
2022/03/03 10:39:58;;;;;;;6.00;5.50;;;;;;;4.57;71.72;100052.94;1752685;80;20975;-75
2022/03/03 10:42:32;;;;;;;5.78;5.17;;;;;;;4.59;71.25;100050.28;1778703;80;20940;-73
2022/03/03 10:45:16;;;;;;;6.37;5.75;;;;;;;4.61;71.34;100054.11;1753194;80;20947;-74
2022/03/03 10:47:46;;;;;;;5.30;4.87;;;;;;;4.63;71.15;100047.10;1752670;80;21094;-73
2022/03/03 10:50:17;;;;;;;5.47;4.97;;;;;;;4.63;71.09;100037.55;1753719;80;20943;-74
2022/03/03 10:52:49;;;;;;;5.33;4.83;;;;;;;4.65;71.19;100035.73;1752464;80;20963;-72
2022/03/03 10:55:22;;;;;;;6.08;5.42;;;;;;;4.69;70.69;100029.48;1778176;80;20927;-74
2022/03/03 10:57:59;;;;;;;4.83;4.42;;;;;;;4.68;70.74;100021.76;1753047;81;26398;-75
2022/03/03 11:00:34;;;;;;;4.90;4.40;;;;;;;4.68;70.79;100019.16;1751166;81;21078;-75
2022/03/03 11:03:06;;;;;;;5.45;4.97;;;;;;;4.66;70.78;100020.52;1772723;80;20876;-74
2022/03/03 11:05:41;;;;;;;5.05;4.65;;;;;;;4.64;70.76;100017.61;1751628;81;21026;-74
2022/03/03 11:08:10;;;;;;;3.98;3.67;;;;;;;4.63;70.72;100010.74;1751172;80;21401;-74
2022/03/03 11:10:39;;;;;;;3.47;3.27;;;;;;;4.65;70.65;99999.83;1772778;80;20857;-74
2022/03/03 11:13:09;;;;;;;4.65;3.30;;;;;;;4.65;70.41;99993.34;1772157;79;21346;-74
2022/03/03 11:15:41;;;;;;;3.60;3.40;;;;;;;4.66;70.34;99993.25;1772828;81;20904;-73
2022/03/03 11:18:11;;;;;;;3.67;3.40;;;;;;;4.70;70.09;99997.86;1772917;80;21358;-74
2022/03/03 11:20:39;;;;;;;4.37;3.98;;;;;;;4.73;69.96;99989.92;1772824;81;20857;-75
2022/03/03 11:23:09;;;;;;;4.08;3.77;;;;;;;4.77;69.96;99996.20;1772654;80;21326;-74
2022/03/03 11:25:36;;;;;;;5.95;4.45;;;;;;;4.80;69.97;99994.37;1772804;81;21133;-72
2022/03/03 11:28:08;;;;;;;5.83;5.30;;;;;;;4.79;70.12;99993.53;1772681;81;20924;-74
2022/03/03 11:30:37;;;;;;;4.95;4.37;;;;;;;4.80;70.32;99993.91;1772961;80;20880;-73
2022/03/03 11:33:27;;;;;;;4.90;4.50;;;;;;;4.82;70.23;99985.59;1772832;79;20900;-73
2022/03/03 11:36:04;;;;;;;5.17;4.70;;;;;;;4.85;70.39;99983.33;1772750;81;20943;-73
2022/03/03 11:38:55;;;;;;;4.83;4.45;;;;;;;4.86;70.49;99979.34;1772842;81;21142;-73
2022/03/03 11:41:25;;;;;;;5.53;4.97;;;;;;;4.85;70.47;99969.05;1772430;80;20924;-74